ICAO code: LHPR | IATA code: QGY | AFTN: LHPRZPZX | magyar | deutsch
Weather : 2018-01-23 03:30 (UTC) | Temperature: 0.5 °C | QNH: 1018.3 hPa | Wind: --.- m/s | More
Live ATC LHPR
Live webcam

Győr-Pér Airport Meteor data

Metar:
METAR LHPR 222245Z AUTO 11007KT 9999 BKN034 01/M01 Q1015 RMK BL


Taf:
TAF LHPR 222000Z NIL


Present weather:
Cloud development not observed or observable
Date stamp: 2018-01-23 03:30:00 UTC
Air Temp:
0.5 °C
 
Dewpoint:
-1.2 °C
 
Rel. Humidity:
88%
 
QNH:
1018.3 hPa
 
Wind speed:
0.0 m/s
Max:
0.0 m/s
Wind direction:
80°
 
Precipitation (1 hour):
0.0 mm
 
Visibility:
9754 m
 
RVR:
>1500 m RWY30
 
1st cloud layer quantity:
7 octa
 
1st cloud layer base:
570 m


Az adatokat szolgáltatja
az Országos Meteorológiai Szolgálat
Győr-Pér Airport | H 9099 Pér, Repülőtér | Tel: +36/96/559-200 | Fax: +36/96/559-202

ICAO code: LHPR | IATA code: QGY | AFTN: LHPRZPZX


weboldal tervezés: IRQ